createdAt,value
2017-11-23T00:02:25.902Z,13.20
2017-11-23T00:04:53.438Z,12.17
2017-11-23T00:07:21.025Z,11.17
2017-11-23T00:09:48.569Z,12.20
2017-11-23T00:12:16.131Z,12.77
2017-11-23T00:14:43.671Z,13.57
2017-11-23T00:17:11.256Z,13.47
2017-11-23T00:19:38.795Z,11.70
2017-11-23T00:22:06.352Z,11.23
2017-11-23T00:24:33.899Z,10.83
2017-11-23T00:27:01.456Z,13.67
2017-11-23T00:29:29.001Z,11.30
2017-11-23T00:31:57.343Z,11.40
2017-11-23T00:34:24.892Z,11.83
2017-11-23T00:36:52.480Z,11.80
2017-11-23T00:39:20.024Z,11.20
2017-11-23T00:41:47.596Z,10.90
2017-11-23T00:44:15.131Z,11.37
2017-11-23T00:46:42.692Z,11.40
2017-11-23T00:49:10.225Z,11.17
2017-11-23T00:51:37.784Z,12.50
2017-11-23T00:54:05.322Z,12.73
2017-11-23T00:56:33.650Z,11.90
2017-11-23T00:59:01.204Z,12.20
2017-11-23T01:01:28.765Z,13.27
2017-11-23T01:03:56.310Z,13.17
2017-11-23T01:06:23.880Z,11.77
2017-11-23T01:08:51.425Z,11.80
2017-11-23T01:11:18.996Z,14.53
2017-11-23T01:13:46.548Z,13.60
2017-11-23T01:16:14.122Z,16.03
2017-11-23T01:18:41.664Z,14.40
2017-11-23T01:21:09.228Z,12.53
2017-11-23T01:23:36.769Z,13.70
2017-11-23T01:26:04.331Z,12.70
2017-11-23T01:28:31.868Z,12.33
2017-11-23T01:30:59.396Z,12.40
2017-11-23T01:33:27.719Z,12.20
2017-11-23T01:35:56.015Z,13.63
2017-11-23T01:38:23.584Z,14.13
2017-11-23T01:40:51.131Z,13.57
2017-11-23T01:43:18.692Z,12.73
2017-11-23T01:45:46.233Z,11.80
2017-11-23T01:48:14.576Z,12.00
2017-11-23T01:50:42.116Z,14.10
2017-11-23T01:53:09.680Z,15.90
2017-11-23T01:55:37.221Z,14.33
2017-11-23T01:58:04.785Z,13.10
2017-11-23T02:00:32.326Z,13.10
2017-11-23T02:02:59.902Z,13.90
2017-11-23T02:05:27.445Z,12.70
2017-11-23T02:07:55.011Z,12.33
2017-11-23T02:10:22.548Z,13.10
2017-11-23T02:12:50.883Z,13.10
2017-11-23T02:15:18.413Z,11.83
2017-11-23T02:17:45.971Z,11.70
2017-11-23T02:20:13.515Z,10.70
2017-11-23T02:22:41.840Z,12.47
2017-11-23T02:25:09.385Z,11.83
2017-11-23T02:27:36.951Z,11.13
2017-11-23T02:30:04.507Z,12.27
2017-11-23T02:32:32.064Z,12.97
2017-11-23T02:34:59.607Z,12.70
2017-11-23T02:37:27.169Z,11.67
2017-11-23T02:39:54.720Z,11.03
2017-11-23T02:42:22.291Z,11.93
2017-11-23T02:44:49.847Z,13.63
2017-11-23T02:47:17.407Z,13.67
2017-11-23T02:49:44.942Z,12.10
2017-11-23T02:52:13.255Z,12.43
2017-11-23T02:54:40.803Z,12.33
2017-11-23T02:57:08.363Z,13.50
2017-11-23T02:59:35.888Z,13.80
2017-11-23T03:02:04.229Z,14.20
2017-11-23T03:04:31.772Z,13.50
2017-11-23T03:06:59.349Z,14.20
2017-11-23T03:09:26.879Z,14.63
2017-11-23T03:11:54.450Z,10.93
2017-11-23T03:14:21.991Z,11.53
2017-11-23T03:16:49.551Z,12.00
2017-11-23T03:19:17.088Z,12.90
2017-11-23T03:24:52.194Z,12.47
2017-11-23T03:27:19.758Z,14.07
2017-11-23T03:29:48.305Z,14.00
2017-11-23T03:32:15.864Z,14.40
2017-11-23T03:34:43.404Z,15.30
2017-11-23T03:37:11.887Z,14.63
2017-11-23T03:39:40.191Z,14.73
2017-11-23T03:42:07.748Z,13.23
2017-11-23T03:44:35.276Z,12.87
2017-11-23T03:47:02.837Z,14.77
2017-11-23T03:49:31.150Z,15.93
2017-11-23T03:51:58.708Z,12.97
2017-11-23T03:54:26.239Z,13.03
2017-11-23T03:56:54.573Z,12.80
2017-11-23T03:59:22.116Z,12.57
2017-11-23T04:01:49.676Z,11.77
2017-11-23T04:04:17.239Z,11.37
2017-11-23T04:06:44.796Z,9.40
2017-11-23T04:09:12.326Z,11.23
2017-11-23T04:11:40.628Z,10.70
2017-11-23T04:14:08.193Z,11.00
2017-11-23T04:16:35.723Z,10.37
2017-11-23T04:19:04.056Z,10.80
2017-11-23T04:21:31.593Z,10.83
2017-11-23T04:23:59.159Z,9.57
2017-11-23T04:26:26.695Z,9.13
2017-11-23T04:28:54.248Z,9.63
2017-11-23T04:31:21.797Z,11.07
2017-11-23T04:33:49.372Z,11.60
2017-11-23T04:36:16.903Z,9.50
2017-11-23T04:38:44.460Z,9.20
2017-11-23T04:41:12.767Z,11.00
2017-11-23T04:43:40.328Z,12.80
2017-11-23T04:46:07.865Z,11.60
2017-11-23T04:48:36.187Z,11.57
2017-11-23T04:51:03.727Z,10.30
2017-11-23T04:53:31.285Z,9.13
2017-11-23T04:55:58.816Z,8.43
2017-11-23T04:58:26.371Z,8.73
2017-11-23T05:00:53.906Z,8.83
2017-11-23T05:03:21.471Z,9.77
2017-11-23T05:05:49.012Z,8.83
2017-11-23T05:08:16.576Z,9.40
2017-11-23T05:10:44.110Z,9.47
2017-11-23T05:13:11.663Z,7.80
2017-11-23T05:15:39.191Z,8.60
2017-11-23T05:18:06.748Z,9.70
2017-11-23T05:20:34.279Z,8.70
2017-11-23T05:23:01.845Z,8.60
2017-11-23T05:25:29.383Z,8.53
2017-11-23T05:27:56.933Z,7.80
2017-11-23T05:30:24.484Z,8.13
2017-11-23T05:32:52.046Z,7.90
2017-11-23T05:35:19.581Z,7.80
2017-11-23T05:37:47.904Z,7.03
2017-11-23T05:40:15.431Z,6.07
2017-11-23T05:42:42.979Z,6.27
2017-11-23T05:45:11.274Z,6.70
2017-11-23T05:47:38.828Z,6.43
2017-11-23T05:50:06.359Z,7.00
2017-11-23T05:52:33.913Z,6.03
2017-11-23T05:55:01.448Z,6.30
2017-11-23T05:57:29.012Z,6.20
2017-11-23T05:59:56.552Z,6.20
2017-11-23T06:02:24.110Z,6.17
2017-11-23T06:04:51.645Z,6.23
2017-11-23T06:07:19.200Z,5.90
2017-11-23T06:09:46.740Z,7.40
2017-11-23T06:12:15.062Z,6.47
2017-11-23T06:14:42.588Z,6.33
2017-11-23T06:17:10.903Z,6.10
2017-11-23T06:19:38.437Z,6.00
2017-11-23T06:22:05.973Z,5.53
2017-11-23T06:24:33.524Z,5.20
2017-11-23T06:27:01.044Z,4.90
2017-11-23T06:29:28.596Z,5.47
2017-11-23T06:51:29.463Z,5.40
2017-11-23T06:53:57.016Z,5.63
2017-11-23T06:56:24.550Z,6.47
2017-11-23T06:58:52.869Z,7.47
2017-11-23T07:01:20.400Z,6.57
2017-11-23T07:03:47.952Z,6.10
2017-11-23T07:06:16.253Z,6.10
2017-11-23T07:08:43.820Z,8.33
2017-11-23T07:11:11.353Z,13.17
2017-11-23T07:13:39.683Z,9.50
2017-11-23T07:16:07.216Z,6.10
2017-11-23T07:18:34.798Z,6.17
2017-11-23T07:21:02.343Z,6.40
2017-11-23T07:23:29.904Z,5.87
2017-11-23T07:25:57.449Z,5.80
2017-11-23T07:28:33.093Z,5.40
2017-11-23T07:31:00.639Z,5.60
2017-11-23T07:33:28.203Z,6.40
2017-11-23T07:35:55.742Z,5.77
2017-11-23T07:38:24.068Z,5.87
2017-11-23T07:40:51.604Z,4.80
2017-11-23T07:43:19.163Z,5.20
2017-11-23T07:45:46.699Z,4.63
2017-11-23T07:48:15.032Z,6.23
2017-11-23T07:50:42.564Z,5.30
2017-11-23T07:53:10.119Z,5.20
2017-11-23T07:55:37.651Z,5.00
2017-11-23T07:58:05.213Z,4.83
2017-11-23T08:00:33.519Z,5.70
2017-11-23T08:03:01.080Z,5.53
2017-11-23T08:05:28.614Z,4.60
2017-11-23T08:07:56.941Z,5.27
2017-11-23T08:10:24.471Z,4.07
2017-11-23T08:12:52.029Z,5.70
2017-11-23T08:15:19.574Z,4.87
2017-11-23T08:17:47.904Z,5.20
2017-11-23T08:20:15.436Z,4.93
2017-11-23T08:22:42.987Z,4.43
2017-11-23T08:25:10.523Z,5.90
2017-11-23T08:27:38.856Z,5.40
2017-11-23T08:30:06.395Z,4.53
2017-11-23T08:32:33.936Z,5.43
2017-11-23T08:35:02.262Z,6.10
2017-11-23T08:37:30.560Z,7.50
2017-11-23T08:39:58.124Z,6.50
2017-11-23T08:42:25.660Z,5.30
2017-11-23T08:44:53.219Z,4.20
2017-11-23T08:47:20.747Z,4.20
2017-11-23T08:49:48.311Z,4.13
2017-11-23T08:52:22.455Z,4.27
2017-11-23T08:54:55.052Z,4.50
2017-11-23T08:57:22.598Z,5.70
2017-11-23T08:59:50.160Z,4.20
2017-11-23T09:02:17.688Z,3.77
2017-11-23T09:04:45.244Z,3.37
2017-11-23T09:07:12.825Z,4.03
2017-11-23T09:09:40.393Z,4.40
2017-11-23T09:12:13.626Z,5.20
2017-11-23T09:14:41.976Z,4.93
2017-11-23T09:17:09.533Z,3.90
2017-11-23T09:19:37.103Z,4.43
2017-11-23T09:22:04.648Z,5.20
2017-11-23T09:24:32.207Z,4.50
2017-11-23T09:26:59.763Z,4.40
2017-11-23T09:29:27.318Z,6.60
2017-11-23T09:31:54.856Z,6.40
2017-11-23T09:34:22.424Z,5.13
2017-11-23T09:36:49.961Z,4.77
2017-11-23T09:39:17.532Z,4.83
2017-11-23T09:41:45.067Z,4.53
2017-11-23T09:44:13.400Z,5.20
2017-11-23T09:46:40.949Z,4.30
2017-11-23T09:49:08.504Z,4.43
2017-11-23T09:51:36.035Z,4.33
2017-11-23T09:54:03.592Z,4.63
2017-11-23T09:56:31.128Z,4.00
2017-11-23T09:58:59.478Z,4.97
2017-11-23T10:01:27.009Z,4.97
2017-11-23T10:03:54.558Z,3.93
2017-11-23T10:06:22.088Z,5.17
2017-11-23T10:08:50.420Z,4.43
2017-11-23T10:11:17.947Z,3.73
2017-11-23T10:13:45.499Z,3.93
2017-11-23T10:16:13.800Z,3.30
2017-11-23T10:18:41.349Z,3.90
2017-11-23T10:21:08.880Z,3.20
2017-11-23T10:23:37.200Z,3.87
2017-11-23T10:26:04.735Z,3.40
2017-11-23T10:28:33.061Z,4.60
2017-11-23T10:31:00.594Z,4.33
2017-11-23T10:33:28.162Z,5.00
2017-11-23T10:35:57.672Z,5.20
2017-11-23T10:38:25.228Z,4.07
2017-11-23T10:40:52.764Z,4.77
2017-11-23T10:43:20.317Z,3.97
2017-11-23T10:45:47.856Z,4.10
2017-11-23T10:48:33.598Z,4.00
2017-11-23T10:51:06.865Z,4.13
2017-11-23T10:53:34.411Z,4.03
2017-11-23T10:56:02.704Z,4.10
2017-11-23T10:58:30.264Z,3.43
2017-11-23T11:00:57.797Z,3.50
2017-11-23T11:03:26.124Z,4.10
2017-11-23T11:05:53.657Z,3.70
2017-11-23T11:08:21.216Z,4.20
2017-11-23T11:10:48.748Z,4.40
2017-11-23T11:13:16.312Z,4.97
2017-11-23T11:15:44.633Z,3.97
2017-11-23T11:18:12.165Z,3.90
2017-11-23T11:20:40.492Z,4.17
2017-11-23T11:23:08.029Z,3.53
2017-11-23T11:25:35.586Z,4.30
2017-11-23T11:28:03.118Z,3.60
2017-11-23T11:30:31.431Z,3.50
2017-11-23T11:32:58.973Z,3.87
2017-11-23T11:35:26.533Z,3.37
2017-11-23T11:37:54.061Z,3.63
2017-11-23T11:40:22.388Z,3.23
2017-11-23T11:42:49.920Z,3.53
2017-11-23T11:45:17.481Z,3.73
2017-11-23T11:47:45.021Z,3.40
2017-11-23T11:50:13.341Z,3.53
2017-11-23T11:52:40.871Z,3.97
2017-11-23T11:55:09.183Z,3.60
2017-11-23T11:57:36.723Z,3.97
2017-11-23T12:00:04.288Z,3.60
2017-11-23T12:02:31.815Z,3.27
2017-11-23T12:05:00.144Z,3.80
2017-11-23T12:07:27.673Z,3.93
2017-11-23T12:09:55.224Z,3.67
2017-11-23T12:12:23.512Z,3.70
2017-11-23T12:15:02.883Z,3.80
2017-11-23T12:18:06.181Z,3.77
2017-11-23T12:20:45.579Z,3.87
2017-11-23T12:23:24.995Z,4.00
2017-11-23T12:25:59.239Z,3.70
2017-11-23T12:28:38.676Z,5.63
2017-11-23T12:31:06.238Z,3.40
2017-11-23T12:33:33.772Z,3.50
2017-11-23T12:36:02.088Z,3.80
2017-11-23T12:38:30.459Z,3.33
2017-11-23T12:40:58.028Z,3.40
2017-11-23T12:43:25.570Z,3.67
2017-11-23T12:45:53.126Z,3.30
2017-11-23T12:48:20.656Z,4.10
2017-11-23T12:50:48.984Z,3.63
2017-11-23T12:53:16.516Z,3.73
2017-11-23T12:55:44.078Z,3.13
2017-11-23T12:58:12.375Z,3.53
2017-11-23T13:00:39.928Z,3.73
2017-11-23T13:03:07.455Z,3.57
2017-11-23T13:05:35.772Z,3.83
2017-11-23T13:08:03.308Z,4.10
2017-11-23T13:10:31.628Z,4.30
2017-11-23T13:12:59.163Z,4.50
2017-11-23T13:15:26.720Z,4.17
2017-11-23T13:17:54.243Z,4.30
2017-11-23T13:20:21.800Z,4.27
2017-11-23T13:22:49.328Z,4.10
2017-11-23T13:25:16.892Z,4.20
2017-11-23T13:27:44.415Z,5.33
2017-11-23T13:30:11.966Z,6.03
2017-11-23T13:32:39.499Z,3.80
2017-11-23T13:35:07.052Z,3.60
2017-11-23T13:37:34.593Z,3.67
2017-11-23T13:40:02.165Z,4.83
2017-11-23T13:42:29.694Z,3.97
2017-11-23T13:44:57.260Z,4.90
2017-11-23T13:47:24.804Z,4.70
2017-11-23T13:49:52.372Z,6.20
2017-11-23T13:52:19.907Z,6.80
2017-11-23T13:54:47.457Z,5.37
2017-11-23T13:57:15.759Z,5.10
2017-11-23T13:59:43.317Z,4.73
2017-11-23T14:02:10.851Z,4.40
2017-11-23T14:04:39.172Z,4.60
2017-11-23T14:07:06.713Z,5.80
2017-11-23T14:09:34.275Z,6.33
2017-11-23T14:12:01.806Z,6.03
2017-11-23T14:14:30.122Z,5.60
2017-11-23T14:16:57.684Z,5.03
2017-11-23T14:19:25.223Z,5.10
2017-11-23T14:21:52.783Z,4.80
2017-11-23T14:24:20.324Z,4.53
2017-11-23T14:26:48.655Z,4.27
2017-11-23T14:29:16.192Z,5.73
2017-11-23T14:31:43.753Z,4.33
2017-11-23T14:34:11.289Z,4.07
2017-11-23T14:36:39.609Z,4.10
2017-11-23T14:39:07.142Z,3.70
2017-11-23T14:41:34.710Z,3.80
2017-11-23T14:44:02.242Z,3.83
2017-11-23T14:46:30.567Z,4.00
2017-11-23T14:48:58.096Z,3.70
2017-11-23T14:51:25.659Z,4.07
2017-11-23T14:53:53.193Z,3.70
2017-11-23T14:56:21.525Z,3.90
2017-11-23T14:58:49.086Z,3.80
2017-11-23T15:01:16.629Z,3.80
2017-11-23T15:03:44.184Z,4.03
2017-11-23T15:06:11.714Z,4.13
2017-11-23T15:08:40.055Z,4.17
2017-11-23T15:11:07.602Z,3.80
2017-11-23T15:13:35.185Z,3.80
2017-11-23T15:16:02.715Z,3.93
2017-11-23T15:18:30.273Z,4.23
2017-11-23T15:20:57.808Z,4.07
2017-11-23T15:23:25.369Z,4.27
2017-11-23T15:25:52.924Z,4.93
2017-11-23T15:28:20.499Z,5.13
2017-11-23T15:30:48.037Z,5.57
2017-11-23T15:33:15.595Z,5.50
2017-11-23T15:35:43.888Z,6.20
2017-11-23T15:38:11.455Z,4.87
2017-11-23T15:40:38.994Z,6.43
2017-11-23T15:43:06.570Z,5.00
2017-11-23T15:45:34.100Z,5.83
2017-11-23T15:48:02.437Z,4.70
2017-11-23T15:50:29.983Z,4.27
2017-11-23T15:52:57.560Z,6.77
2017-11-23T15:55:25.109Z,5.07
2017-11-23T15:57:52.697Z,5.00
2017-11-23T16:00:20.244Z,4.60
2017-11-23T16:02:47.791Z,6.93
2017-11-23T16:05:15.351Z,6.00
2017-11-23T16:07:42.892Z,5.63
2017-11-23T16:10:10.468Z,4.80
2017-11-23T16:12:38.008Z,4.47
2017-11-23T16:15:05.575Z,5.60
2017-11-23T16:17:33.116Z,6.23
2017-11-23T16:20:00.697Z,4.73
2017-11-23T16:22:28.239Z,4.10
2017-11-23T16:24:55.814Z,6.03
2017-11-23T16:27:23.361Z,5.97
2017-11-23T16:29:50.931Z,6.07
2017-11-23T16:32:18.466Z,5.20
2017-11-23T16:34:46.043Z,5.10
2017-11-23T16:40:20.804Z,5.97
2017-11-23T16:42:53.972Z,4.83
2017-11-23T16:48:45.055Z,6.30
2017-11-23T16:54:30.448Z,6.53
2017-11-23T16:57:03.634Z,5.20
2017-11-23T16:59:36.944Z,5.90
2017-11-23T17:02:10.167Z,5.73
2017-11-23T17:04:44.146Z,7.10
2017-11-23T17:10:18.757Z,5.23
2017-11-23T17:12:52.052Z,6.40
2017-11-23T17:18:38.901Z,5.57
2017-11-23T17:21:06.466Z,5.57
2017-11-23T17:23:34.000Z,5.10
2017-11-23T17:26:01.564Z,6.33
2017-11-23T17:28:29.091Z,5.10
2017-11-23T17:30:57.408Z,4.90
2017-11-23T17:33:24.942Z,4.97
2017-11-23T17:35:52.499Z,6.00
2017-11-23T17:38:20.032Z,5.03
2017-11-23T17:40:47.591Z,5.00
2017-11-23T17:43:15.119Z,5.77
2017-11-23T17:45:42.686Z,5.50
2017-11-23T17:48:10.216Z,5.50
2017-11-23T17:50:37.752Z,6.47
2017-11-23T17:53:05.314Z,5.77
2017-11-23T17:55:33.654Z,5.33
2017-11-23T17:58:01.220Z,5.37
2017-11-23T18:00:28.744Z,5.33
2017-11-23T18:02:56.313Z,5.37
2017-11-23T18:05:23.852Z,5.70
2017-11-23T18:07:51.404Z,5.87
2017-11-23T18:10:18.940Z,5.37
2017-11-23T18:12:55.811Z,5.40
2017-11-23T18:15:24.132Z,4.53
2017-11-23T18:17:51.700Z,4.73
2017-11-23T18:20:19.240Z,5.20
2017-11-23T18:22:46.812Z,5.47
2017-11-23T18:25:14.373Z,6.30
2017-11-23T18:27:41.922Z,5.43
2017-11-23T18:30:09.470Z,5.90
2017-11-23T18:32:37.028Z,6.37
2017-11-23T18:35:04.565Z,5.37
2017-11-23T18:37:32.891Z,5.43
2017-11-23T18:40:00.424Z,5.37
2017-11-23T18:42:27.987Z,6.13
2017-11-23T18:44:55.516Z,5.50
2017-11-23T18:47:23.846Z,6.00
2017-11-23T18:49:51.379Z,6.10
2017-11-23T18:52:18.952Z,6.43
2017-11-23T18:54:46.483Z,6.30
2017-11-23T18:57:14.810Z,6.37
2017-11-23T18:59:42.349Z,6.60
2017-11-23T19:02:09.899Z,5.70
2017-11-23T19:04:37.688Z,5.10
2017-11-23T19:07:05.298Z,5.40
2017-11-23T19:09:33.599Z,5.97
2017-11-23T19:12:01.160Z,5.77
2017-11-23T19:14:28.695Z,6.00
2017-11-23T19:16:57.026Z,5.70
2017-11-23T19:19:24.555Z,6.03
2017-11-23T19:21:52.119Z,7.10
2017-11-23T19:24:19.655Z,5.37
2017-11-23T19:26:47.992Z,6.00
2017-11-23T19:29:15.526Z,4.93
2017-11-23T19:31:43.079Z,5.50
2017-11-23T19:34:10.616Z,6.03
2017-11-23T19:36:38.939Z,6.67
2017-11-23T19:39:06.480Z,6.20
2017-11-23T19:41:34.026Z,5.33
2017-11-23T19:44:01.581Z,6.47
2017-11-23T19:46:29.886Z,5.70
2017-11-23T19:48:57.447Z,5.80
2017-11-23T19:51:24.985Z,5.83
2017-11-23T19:53:52.557Z,6.07
2017-11-23T19:56:20.091Z,6.03
2017-11-23T19:58:48.415Z,5.90
2017-11-23T20:01:16.728Z,5.80
2017-11-23T20:03:44.284Z,5.40
2017-11-23T20:06:11.821Z,4.63
2017-11-23T20:08:40.147Z,5.53
2017-11-23T20:11:08.436Z,5.30
2017-11-23T20:13:35.984Z,5.50
2017-11-23T20:16:04.282Z,5.90
2017-11-23T20:18:31.843Z,5.17
2017-11-23T20:20:59.381Z,5.60
2017-11-23T20:23:27.712Z,5.10
2017-11-23T20:25:55.243Z,4.90
2017-11-23T20:28:22.802Z,5.40
2017-11-23T20:30:50.330Z,5.43
2017-11-23T20:33:18.663Z,5.03
2017-11-23T20:35:46.183Z,5.40
2017-11-23T20:38:13.732Z,6.33
2017-11-23T20:40:42.044Z,5.03
2017-11-23T20:43:09.965Z,5.67
2017-11-23T20:45:37.547Z,6.00
2017-11-23T20:48:05.120Z,6.50
2017-11-23T20:50:32.792Z,5.20
2017-11-23T20:53:00.371Z,6.07
2017-11-23T20:55:27.933Z,5.90
2017-11-23T20:57:55.500Z,5.87
2017-11-23T21:00:23.042Z,6.43
2017-11-23T21:02:50.603Z,5.63
2017-11-23T21:05:18.138Z,5.13
2017-11-23T21:07:45.703Z,6.30
2017-11-23T21:10:13.240Z,5.17
2017-11-23T21:12:41.546Z,5.07
2017-11-23T21:15:09.115Z,6.40
2017-11-23T21:17:36.648Z,4.93
2017-11-23T21:20:04.209Z,5.40
2017-11-23T21:22:31.760Z,6.40
2017-11-23T21:25:00.081Z,5.00
2017-11-23T21:27:27.616Z,6.17
2017-11-23T21:29:55.175Z,6.70
2017-11-23T21:32:22.711Z,5.80
2017-11-23T21:34:51.043Z,5.73
2017-11-23T21:37:18.585Z,6.33
2017-11-23T21:39:46.140Z,5.53
2017-11-23T21:42:13.667Z,5.30
2017-11-23T21:44:42.001Z,6.30
2017-11-23T21:47:09.543Z,5.23
2017-11-23T21:49:37.103Z,6.67
2017-11-23T21:52:04.635Z,6.07
2017-11-23T21:54:32.286Z,5.43
2017-11-23T21:57:00.586Z,6.13
2017-11-23T21:59:28.167Z,5.70
2017-11-23T22:01:55.710Z,5.20
2017-11-23T22:04:23.238Z,6.67
2017-11-23T22:06:51.559Z,5.00
2017-11-23T22:09:19.105Z,5.73
2017-11-23T22:11:46.663Z,7.00
2017-11-23T22:14:14.213Z,6.83
2017-11-23T22:16:41.792Z,5.43
2017-11-23T22:19:09.339Z,5.80
2017-11-23T22:21:36.916Z,5.77
2017-11-23T22:24:04.455Z,5.80
2017-11-23T22:26:32.022Z,5.80
2017-11-23T22:28:59.576Z,5.27
2017-11-23T22:31:27.218Z,5.10
2017-11-23T22:33:55.532Z,5.50
2017-11-23T22:36:23.099Z,5.57
2017-11-23T22:38:51.016Z,5.83
2017-11-23T22:41:18.603Z,5.43
2017-11-23T22:43:46.131Z,5.80
2017-11-23T22:46:13.683Z,6.17
2017-11-23T22:48:41.226Z,6.13
2017-11-23T22:51:08.779Z,7.20
2017-11-23T22:53:36.427Z,6.07
2017-11-23T22:56:04.000Z,6.10
2017-11-23T22:58:31.552Z,5.30
2017-11-23T23:01:01.926Z,5.60
2017-11-23T23:03:30.230Z,5.53
2017-11-23T23:05:57.823Z,6.20
2017-11-23T23:08:25.357Z,6.00
2017-11-23T23:10:52.886Z,5.83
2017-11-23T23:13:21.227Z,5.47
2017-11-23T23:15:48.789Z,6.40
2017-11-23T23:18:16.344Z,6.23
2017-11-23T23:20:43.878Z,6.27
2017-11-23T23:23:11.432Z,5.53
2017-11-23T23:25:38.982Z,5.80
2017-11-23T23:28:06.564Z,5.63
2017-11-23T23:30:34.107Z,6.90
2017-11-23T23:33:01.673Z,6.30
2017-11-23T23:35:29.229Z,6.57
2017-11-23T23:37:56.787Z,6.23
2017-11-23T23:43:18.251Z,5.33
2017-11-23T23:45:45.784Z,6.10
2017-11-23T23:48:13.361Z,5.90
2017-11-23T23:50:40.904Z,6.10
2017-11-23T23:53:08.467Z,6.73
2017-11-23T23:58:29.652Z,7.90
